sensor_id;sensor_type;location;lat;lon;timestamp;P1;durP1;ratioP1;P2;durP2;ratioP2
28625;SDS011;18905;42.668;23.364;2023-07-22T00:02:12;16.30;;;5.60;;
28625;SDS011;18905;42.668;23.364;2023-07-22T00:04:38;17.35;;;5.97;;
28625;SDS011;18905;42.668;23.364;2023-07-22T00:07:03;18.83;;;6.55;;
28625;SDS011;18905;42.668;23.364;2023-07-22T00:09:29;12.98;;;6.20;;
28625;SDS011;18905;42.668;23.364;2023-07-22T00:11:54;14.50;;;6.30;;
28625;SDS011;18905;42.668;23.364;2023-07-22T00:14:19;13.43;;;6.10;;
28625;SDS011;18905;42.668;23.364;2023-07-22T00:16:45;16.10;;;6.45;;
28625;SDS011;18905;42.668;23.364;2023-07-22T00:19:10;15.10;;;6.28;;
28625;SDS011;18905;42.668;23.364;2023-07-22T00:21:36;16.98;;;5.82;;
28625;SDS011;18905;42.668;23.364;2023-07-22T00:24:01;15.15;;;6.22;;
28625;SDS011;18905;42.668;23.364;2023-07-22T00:26:26;10.18;;;6.20;;
28625;SDS011;18905;42.668;23.364;2023-07-22T00:28:52;13.68;;;5.57;;
28625;SDS011;18905;42.668;23.364;2023-07-22T00:31:17;14.73;;;6.10;;
28625;SDS011;18905;42.668;23.364;2023-07-22T00:33:43;20.13;;;6.10;;
28625;SDS011;18905;42.668;23.364;2023-07-22T00:36:08;14.95;;;5.97;;
28625;SDS011;18905;42.668;23.364;2023-07-22T00:38:33;18.70;;;6.53;;
28625;SDS011;18905;42.668;23.364;2023-07-22T00:40:59;18.15;;;6.25;;
28625;SDS011;18905;42.668;23.364;2023-07-22T00:43:24;15.50;;;6.03;;
28625;SDS011;18905;42.668;23.364;2023-07-22T00:45:51;11.55;;;5.90;;
28625;SDS011;18905;42.668;23.364;2023-07-22T00:48:16;16.00;;;6.20;;
28625;SDS011;18905;42.668;23.364;2023-07-22T00:50:42;15.80;;;6.15;;
28625;SDS011;18905;42.668;23.364;2023-07-22T00:53:08;13.15;;;6.13;;
28625;SDS011;18905;42.668;23.364;2023-07-22T00:55:34;14.63;;;5.80;;
28625;SDS011;18905;42.668;23.364;2023-07-22T00:58:00;19.20;;;6.50;;
28625;SDS011;18905;42.668;23.364;2023-07-22T01:00:26;15.23;;;5.78;;
28625;SDS011;18905;42.668;23.364;2023-07-22T01:02:51;19.80;;;6.90;;
28625;SDS011;18905;42.668;23.364;2023-07-22T01:05:17;15.50;;;6.50;;
28625;SDS011;18905;42.668;23.364;2023-07-22T01:07:43;15.90;;;6.35;;
28625;SDS011;18905;42.668;23.364;2023-07-22T01:10:09;18.00;;;6.70;;
28625;SDS011;18905;42.668;23.364;2023-07-22T01:12:35;20.42;;;6.55;;
28625;SDS011;18905;42.668;23.364;2023-07-22T01:15:01;14.13;;;6.25;;
28625;SDS011;18905;42.668;23.364;2023-07-22T01:17:28;18.40;;;5.93;;
28625;SDS011;18905;42.668;23.364;2023-07-22T01:19:54;14.30;;;6.43;;
28625;SDS011;18905;42.668;23.364;2023-07-22T01:22:20;16.50;;;6.28;;
28625;SDS011;18905;42.668;23.364;2023-07-22T01:24:46;14.13;;;6.40;;
28625;SDS011;18905;42.668;23.364;2023-07-22T01:27:12;20.95;;;6.63;;
28625;SDS011;18905;42.668;23.364;2023-07-22T01:29:39;14.00;;;6.60;;
28625;SDS011;18905;42.668;23.364;2023-07-22T01:32:04;12.82;;;6.32;;
28625;SDS011;18905;42.668;23.364;2023-07-22T01:34:30;13.85;;;6.50;;
28625;SDS011;18905;42.668;23.364;2023-07-22T01:36:56;12.25;;;6.88;;
28625;SDS011;18905;42.668;23.364;2023-07-22T01:39:22;10.95;;;6.18;;
28625;SDS011;18905;42.668;23.364;2023-07-22T01:41:47;17.88;;;6.60;;
28625;SDS011;18905;42.668;23.364;2023-07-22T01:44:13;22.00;;;6.82;;
28625;SDS011;18905;42.668;23.364;2023-07-22T01:46:39;15.40;;;6.45;;
28625;SDS011;18905;42.668;23.364;2023-07-22T01:49:06;14.15;;;6.60;;
28625;SDS011;18905;42.668;23.364;2023-07-22T01:51:35;13.50;;;6.57;;
28625;SDS011;18905;42.668;23.364;2023-07-22T01:54:05;13.90;;;6.25;;
28625;SDS011;18905;42.668;23.364;2023-07-22T02:42:45;15.85;;;7.15;;
28625;SDS011;18905;42.668;23.364;2023-07-22T02:45:11;22.90;;;7.63;;
28625;SDS011;18905;42.668;23.364;2023-07-22T02:55:23;14.60;;;6.60;;
28625;SDS011;18905;42.668;23.364;2023-07-22T02:57:48;14.65;;;6.20;;
28625;SDS011;18905;42.668;23.364;2023-07-22T03:00:14;13.07;;;5.85;;
28625;SDS011;18905;42.668;23.364;2023-07-22T03:08:10;11.65;;;5.90;;
28625;SDS011;18905;42.668;23.364;2023-07-22T03:41:37;11.68;;;6.05;;
28625;SDS011;18905;42.668;23.364;2023-07-22T03:46:38;14.55;;;6.30;;
28625;SDS011;18905;42.668;23.364;2023-07-22T03:59:24;10.18;;;6.13;;
28625;SDS011;18905;42.668;23.364;2023-07-22T04:01:50;13.23;;;6.93;;
28625;SDS011;18905;42.668;23.364;2023-07-22T04:04:15;13.07;;;6.68;;
28625;SDS011;18905;42.668;23.364;2023-07-22T04:06:40;12.55;;;6.28;;
28625;SDS011;18905;42.668;23.364;2023-07-22T04:11:41;22.08;;;9.45;;
28625;SDS011;18905;42.668;23.364;2023-07-22T04:19:17;30.63;;;16.92;;
28625;SDS011;18905;42.668;23.364;2023-07-22T04:21:42;38.00;;;17.65;;
28625;SDS011;18905;42.668;23.364;2023-07-22T04:26:43;22.50;;;13.63;;
28625;SDS011;18905;42.668;23.364;2023-07-22T04:29:08;12.85;;;7.07;;
28625;SDS011;18905;42.668;23.364;2023-07-22T04:36:46;18.65;;;6.85;;
28625;SDS011;18905;42.668;23.364;2023-07-22T04:39:11;20.88;;;9.32;;
28625;SDS011;18905;42.668;23.364;2023-07-22T04:41:37;18.67;;;10.10;;
28625;SDS011;18905;42.668;23.364;2023-07-22T04:44:02;24.40;;;10.43;;
28625;SDS011;18905;42.668;23.364;2023-07-22T04:46:28;18.38;;;10.55;;
28625;SDS011;18905;42.668;23.364;2023-07-22T04:48:55;17.40;;;8.32;;
28625;SDS011;18905;42.668;23.364;2023-07-22T04:51:21;20.08;;;10.93;;
28625;SDS011;18905;42.668;23.364;2023-07-22T04:53:47;19.55;;;8.68;;
28625;SDS011;18905;42.668;23.364;2023-07-22T04:56:12;15.73;;;8.85;;
28625;SDS011;18905;42.668;23.364;2023-07-22T04:58:38;15.98;;;8.32;;
28625;SDS011;18905;42.668;23.364;2023-07-22T05:01:03;14.60;;;7.72;;
28625;SDS011;18905;42.668;23.364;2023-07-22T05:03:29;17.23;;;8.30;;
28625;SDS011;18905;42.668;23.364;2023-07-22T05:05:54;21.05;;;9.35;;
28625;SDS011;18905;42.668;23.364;2023-07-22T05:08:20;12.82;;;7.50;;
28625;SDS011;18905;42.668;23.364;2023-07-22T05:10:46;14.05;;;8.18;;
28625;SDS011;18905;42.668;23.364;2023-07-22T05:13:11;16.92;;;6.65;;
28625;SDS011;18905;42.668;23.364;2023-07-22T05:15:37;16.00;;;7.85;;
28625;SDS011;18905;42.668;23.364;2023-07-22T05:18:02;17.60;;;7.60;;
28625;SDS011;18905;42.668;23.364;2023-07-22T05:20:27;15.30;;;7.72;;
28625;SDS011;18905;42.668;23.364;2023-07-22T05:22:53;16.42;;;8.23;;
28625;SDS011;18905;42.668;23.364;2023-07-22T05:25:18;13.20;;;7.93;;
28625;SDS011;18905;42.668;23.364;2023-07-22T05:27:43;15.82;;;9.25;;
28625;SDS011;18905;42.668;23.364;2023-07-22T05:30:09;22.58;;;9.80;;
28625;SDS011;18905;42.668;23.364;2023-07-22T05:32:35;21.73;;;8.48;;
28625;SDS011;18905;42.668;23.364;2023-07-22T05:35:01;17.27;;;8.45;;
28625;SDS011;18905;42.668;23.364;2023-07-22T05:37:29;15.38;;;7.78;;
28625;SDS011;18905;42.668;23.364;2023-07-22T05:39:54;14.15;;;8.52;;
28625;SDS011;18905;42.668;23.364;2023-07-22T05:42:19;15.18;;;8.35;;
28625;SDS011;18905;42.668;23.364;2023-07-22T05:44:45;14.32;;;8.80;;
28625;SDS011;18905;42.668;23.364;2023-07-22T05:47:10;14.00;;;7.40;;
28625;SDS011;18905;42.668;23.364;2023-07-22T05:49:35;17.00;;;7.82;;
28625;SDS011;18905;42.668;23.364;2023-07-22T05:52:01;17.58;;;8.02;;
28625;SDS011;18905;42.668;23.364;2023-07-22T05:54:26;17.85;;;8.35;;
28625;SDS011;18905;42.668;23.364;2023-07-22T05:56:52;16.35;;;7.75;;
28625;SDS011;18905;42.668;23.364;2023-07-22T05:59:17;15.43;;;8.02;;
28625;SDS011;18905;42.668;23.364;2023-07-22T06:01:42;14.18;;;8.23;;
28625;SDS011;18905;42.668;23.364;2023-07-22T06:04:08;15.98;;;7.80;;
28625;SDS011;18905;42.668;23.364;2023-07-22T06:06:34;22.58;;;8.48;;
28625;SDS011;18905;42.668;23.364;2023-07-22T06:09:00;17.48;;;8.55;;
28625;SDS011;18905;42.668;23.364;2023-07-22T06:11:25;14.35;;;7.80;;
28625;SDS011;18905;42.668;23.364;2023-07-22T06:13:51;19.50;;;8.13;;
28625;SDS011;18905;42.668;23.364;2023-07-22T06:16:16;20.40;;;9.30;;
28625;SDS011;18905;42.668;23.364;2023-07-22T06:18:42;15.85;;;8.25;;
28625;SDS011;18905;42.668;23.364;2023-07-22T06:21:07;17.20;;;7.80;;
28625;SDS011;18905;42.668;23.364;2023-07-22T06:23:32;19.83;;;8.23;;
28625;SDS011;18905;42.668;23.364;2023-07-22T06:25:58;15.27;;;7.05;;
28625;SDS011;18905;42.668;23.364;2023-07-22T06:28:23;14.52;;;7.45;;
28625;SDS011;18905;42.668;23.364;2023-07-22T06:30:48;17.40;;;7.93;;
28625;SDS011;18905;42.668;23.364;2023-07-22T06:33:14;11.90;;;7.43;;
28625;SDS011;18905;42.668;23.364;2023-07-22T06:35:39;15.25;;;7.97;;
28625;SDS011;18905;42.668;23.364;2023-07-22T06:38:04;13.52;;;6.95;;
28625;SDS011;18905;42.668;23.364;2023-07-22T06:40:30;12.35;;;6.93;;
28625;SDS011;18905;42.668;23.364;2023-07-22T06:42:55;16.63;;;7.47;;
28625;SDS011;18905;42.668;23.364;2023-07-22T06:45:20;20.95;;;7.13;;
28625;SDS011;18905;42.668;23.364;2023-07-22T06:47:46;13.57;;;7.72;;
28625;SDS011;18905;42.668;23.364;2023-07-22T06:50:11;13.88;;;6.68;;
28625;SDS011;18905;42.668;23.364;2023-07-22T06:52:37;15.95;;;6.75;;
28625;SDS011;18905;42.668;23.364;2023-07-22T06:55:02;13.23;;;7.25;;
28625;SDS011;18905;42.668;23.364;2023-07-22T06:57:28;14.40;;;6.95;;
28625;SDS011;18905;42.668;23.364;2023-07-22T06:59:54;12.45;;;6.60;;
28625;SDS011;18905;42.668;23.364;2023-07-22T07:02:20;11.93;;;6.50;;
28625;SDS011;18905;42.668;23.364;2023-07-22T07:04:46;12.27;;;6.75;;
28625;SDS011;18905;42.668;23.364;2023-07-22T07:07:12;12.52;;;6.65;;
28625;SDS011;18905;42.668;23.364;2023-07-22T07:09:38;13.88;;;6.13;;
28625;SDS011;18905;42.668;23.364;2023-07-22T07:12:03;14.95;;;6.30;;
28625;SDS011;18905;42.668;23.364;2023-07-22T07:14:29;14.75;;;6.53;;
28625;SDS011;18905;42.668;23.364;2023-07-22T07:16:54;15.55;;;7.10;;
28625;SDS011;18905;42.668;23.364;2023-07-22T07:19:20;14.02;;;6.50;;
28625;SDS011;18905;42.668;23.364;2023-07-22T07:21:46;14.98;;;6.07;;
28625;SDS011;18905;42.668;23.364;2023-07-22T07:24:11;14.33;;;6.43;;
28625;SDS011;18905;42.668;23.364;2023-07-22T07:26:37;15.75;;;6.35;;
28625;SDS011;18905;42.668;23.364;2023-07-22T07:29:02;11.52;;;6.00;;
28625;SDS011;18905;42.668;23.364;2023-07-22T07:31:27;10.57;;;6.78;;
28625;SDS011;18905;42.668;23.364;2023-07-22T07:33:53;12.55;;;6.45;;
28625;SDS011;18905;42.668;23.364;2023-07-22T07:36:18;11.55;;;6.70;;
28625;SDS011;18905;42.668;23.364;2023-07-22T07:38:43;13.50;;;6.57;;
28625;SDS011;18905;42.668;23.364;2023-07-22T07:41:09;12.90;;;6.45;;
28625;SDS011;18905;42.668;23.364;2023-07-22T07:43:39;11.10;;;6.40;;
28625;SDS011;18905;42.668;23.364;2023-07-22T07:48:42;22.08;;;7.57;;
28625;SDS011;18905;42.668;23.364;2023-07-22T07:51:12;13.02;;;6.78;;
28625;SDS011;18905;42.668;23.364;2023-07-22T07:53:43;15.05;;;7.18;;
28625;SDS011;18905;42.668;23.364;2023-07-22T07:56:10;12.85;;;7.10;;
28625;SDS011;18905;42.668;23.364;2023-07-22T07:58:36;16.60;;;7.75;;
28625;SDS011;18905;42.668;23.364;2023-07-22T08:01:02;22.92;;;7.20;;
28625;SDS011;18905;42.668;23.364;2023-07-22T08:03:28;13.27;;;7.07;;
28625;SDS011;18905;42.668;23.364;2023-07-22T08:05:54;20.83;;;8.00;;
28625;SDS011;18905;42.668;23.364;2023-07-22T08:08:21;12.77;;;7.30;;
28625;SDS011;18905;42.668;23.364;2023-07-22T08:10:46;16.88;;;8.05;;
28625;SDS011;18905;42.668;23.364;2023-07-22T08:13:13;14.35;;;7.68;;
28625;SDS011;18905;42.668;23.364;2023-07-22T08:15:39;18.85;;;8.07;;
28625;SDS011;18905;42.668;23.364;2023-07-22T08:18:04;21.00;;;7.88;;
28625;SDS011;18905;42.668;23.364;2023-07-22T08:20:30;18.33;;;7.85;;
28625;SDS011;18905;42.668;23.364;2023-07-22T08:22:58;15.63;;;7.35;;
28625;SDS011;18905;42.668;23.364;2023-07-22T08:25:23;14.82;;;7.60;;
28625;SDS011;18905;42.668;23.364;2023-07-22T08:27:48;16.17;;;7.80;;
28625;SDS011;18905;42.668;23.364;2023-07-22T08:30:14;19.00;;;7.63;;
28625;SDS011;18905;42.668;23.364;2023-07-22T08:32:39;19.95;;;8.27;;
28625;SDS011;18905;42.668;23.364;2023-07-22T08:35:05;19.60;;;7.93;;
28625;SDS011;18905;42.668;23.364;2023-07-22T08:37:31;14.05;;;7.90;;
28625;SDS011;18905;42.668;23.364;2023-07-22T08:39:57;19.95;;;7.35;;
28625;SDS011;18905;42.668;23.364;2023-07-22T08:42:23;22.50;;;8.27;;
28625;SDS011;18905;42.668;23.364;2023-07-22T08:44:48;13.63;;;7.57;;
28625;SDS011;18905;42.668;23.364;2023-07-22T08:47:20;15.40;;;7.97;;
28625;SDS011;18905;42.668;23.364;2023-07-22T08:49:50;16.05;;;7.97;;
28625;SDS011;18905;42.668;23.364;2023-07-22T08:52:18;23.23;;;8.63;;
28625;SDS011;18905;42.668;23.364;2023-07-22T08:54:44;18.55;;;7.28;;
28625;SDS011;18905;42.668;23.364;2023-07-22T08:57:13;17.83;;;7.95;;
28625;SDS011;18905;42.668;23.364;2023-07-22T08:59:39;15.32;;;7.85;;
28625;SDS011;18905;42.668;23.364;2023-07-22T09:02:07;15.82;;;8.50;;
28625;SDS011;18905;42.668;23.364;2023-07-22T09:04:37;20.05;;;8.40;;
28625;SDS011;18905;42.668;23.364;2023-07-22T09:07:02;18.55;;;7.78;;
28625;SDS011;18905;42.668;23.364;2023-07-22T09:09:28;23.38;;;8.43;;
28625;SDS011;18905;42.668;23.364;2023-07-22T09:11:53;19.08;;;8.60;;
28625;SDS011;18905;42.668;23.364;2023-07-22T09:14:20;25.40;;;8.38;;
28625;SDS011;18905;42.668;23.364;2023-07-22T09:16:46;14.60;;;7.55;;
28625;SDS011;18905;42.668;23.364;2023-07-22T09:19:12;23.30;;;7.82;;
28625;SDS011;18905;42.668;23.364;2023-07-22T09:21:38;26.88;;;8.38;;
28625;SDS011;18905;42.668;23.364;2023-07-22T09:24:25;16.50;;;7.85;;
28625;SDS011;18905;42.668;23.364;2023-07-22T09:26:50;23.02;;;7.60;;
28625;SDS011;18905;42.668;23.364;2023-07-22T09:29:15;19.33;;;7.70;;
28625;SDS011;18905;42.668;23.364;2023-07-22T09:31:51;15.60;;;7.53;;
28625;SDS011;18905;42.668;23.364;2023-07-22T09:34:18;15.00;;;8.35;;
28625;SDS011;18905;42.668;23.364;2023-07-22T09:36:54;16.65;;;7.85;;
28625;SDS011;18905;42.668;23.364;2023-07-22T09:39:20;20.20;;;7.75;;
28625;SDS011;18905;42.668;23.364;2023-07-22T09:41:47;17.10;;;7.43;;
28625;SDS011;18905;42.668;23.364;2023-07-22T09:44:13;26.52;;;8.90;;
28625;SDS011;18905;42.668;23.364;2023-07-22T09:46:39;24.50;;;7.90;;
28625;SDS011;18905;42.668;23.364;2023-07-22T09:49:05;19.95;;;8.02;;
28625;SDS011;18905;42.668;23.364;2023-07-22T09:51:37;19.58;;;7.88;;
28625;SDS011;18905;42.668;23.364;2023-07-22T09:54:04;19.85;;;7.50;;
28625;SDS011;18905;42.668;23.364;2023-07-22T09:56:30;20.70;;;8.13;;
28625;SDS011;18905;42.668;23.364;2023-07-22T09:58:58;19.42;;;7.43;;
28625;SDS011;18905;42.668;23.364;2023-07-22T10:01:24;22.92;;;7.95;;
28625;SDS011;18905;42.668;23.364;2023-07-22T10:03:54;22.25;;;7.78;;
28625;SDS011;18905;42.668;23.364;2023-07-22T10:06:21;26.67;;;8.23;;
28625;SDS011;18905;42.668;23.364;2023-07-22T10:08:51;17.90;;;8.02;;
28625;SDS011;18905;42.668;23.364;2023-07-22T10:11:17;19.55;;;7.75;;
28625;SDS011;18905;42.668;23.364;2023-07-22T10:13:43;24.20;;;7.90;;
28625;SDS011;18905;42.668;23.364;2023-07-22T10:16:08;22.55;;;7.43;;
28625;SDS011;18905;42.668;23.364;2023-07-22T10:18:34;13.00;;;7.13;;
28625;SDS011;18905;42.668;23.364;2023-07-22T10:21:02;21.75;;;7.63;;
28625;SDS011;18905;42.668;23.364;2023-07-22T10:23:28;26.52;;;7.63;;
28625;SDS011;18905;42.668;23.364;2023-07-22T10:25:54;22.10;;;7.30;;
28625;SDS011;18905;42.668;23.364;2023-07-22T10:28:22;22.55;;;8.15;;
28625;SDS011;18905;42.668;23.364;2023-07-22T10:30:49;24.00;;;7.85;;
28625;SDS011;18905;42.668;23.364;2023-07-22T10:33:16;24.35;;;8.30;;
28625;SDS011;18905;42.668;23.364;2023-07-22T10:35:42;24.20;;;7.57;;
28625;SDS011;18905;42.668;23.364;2023-07-22T10:38:25;17.95;;;7.20;;
28625;SDS011;18905;42.668;23.364;2023-07-22T10:40:52;35.08;;;7.95;;
28625;SDS011;18905;42.668;23.364;2023-07-22T10:43:18;31.33;;;8.20;;
28625;SDS011;18905;42.668;23.364;2023-07-22T10:45:51;33.22;;;7.50;;
28625;SDS011;18905;42.668;23.364;2023-07-22T10:48:18;27.95;;;7.63;;
28625;SDS011;18905;42.668;23.364;2023-07-22T10:53:12;27.85;;;7.28;;
28625;SDS011;18905;42.668;23.364;2023-07-22T11:06:57;25.15;;;6.57;;
28625;SDS011;18905;42.668;23.364;2023-07-22T11:14:33;28.77;;;6.93;;
28625;SDS011;18905;42.668;23.364;2023-07-22T11:17:02;35.55;;;7.28;;
28625;SDS011;18905;42.668;23.364;2023-07-22T11:19:29;27.63;;;6.65;;
28625;SDS011;18905;42.668;23.364;2023-07-22T11:21:54;22.98;;;6.28;;
28625;SDS011;18905;42.668;23.364;2023-07-22T11:24:20;28.27;;;6.60;;
28625;SDS011;18905;42.668;23.364;2023-07-22T11:26:47;29.45;;;7.00;;
28625;SDS011;18905;42.668;23.364;2023-07-22T11:29:13;35.67;;;6.78;;
28625;SDS011;18905;42.668;23.364;2023-07-22T11:31:42;34.58;;;6.50;;
28625;SDS011;18905;42.668;23.364;2023-07-22T11:34:10;25.15;;;6.82;;
28625;SDS011;18905;42.668;23.364;2023-07-22T11:36:40;25.25;;;6.50;;
28625;SDS011;18905;42.668;23.364;2023-07-22T11:39:07;29.35;;;6.85;;
28625;SDS011;18905;42.668;23.364;2023-07-22T11:41:36;29.70;;;6.70;;
28625;SDS011;18905;42.668;23.364;2023-07-22T11:44:03;28.35;;;6.13;;
28625;SDS011;18905;42.668;23.364;2023-07-22T11:46:46;30.42;;;6.55;;
28625;SDS011;18905;42.668;23.364;2023-07-22T11:49:13;25.35;;;6.50;;
28625;SDS011;18905;42.668;23.364;2023-07-22T11:51:47;26.83;;;7.05;;
28625;SDS011;18905;42.668;23.364;2023-07-22T11:54:12;22.58;;;6.47;;
28625;SDS011;18905;42.668;23.364;2023-07-22T11:56:39;31.00;;;7.05;;
28625;SDS011;18905;42.668;23.364;2023-07-22T11:59:05;27.10;;;6.28;;
28625;SDS011;18905;42.668;23.364;2023-07-22T12:01:33;21.20;;;6.68;;
28625;SDS011;18905;42.668;23.364;2023-07-22T12:03:59;20.60;;;6.72;;
28625;SDS011;18905;42.668;23.364;2023-07-22T12:06:24;34.28;;;6.93;;
28625;SDS011;18905;42.668;23.364;2023-07-22T12:08:51;27.05;;;6.85;;
28625;SDS011;18905;42.668;23.364;2023-07-22T12:13:47;23.10;;;5.97;;
28625;SDS011;18905;42.668;23.364;2023-07-22T12:16:20;28.52;;;6.53;;
28625;SDS011;18905;42.668;23.364;2023-07-22T12:18:48;22.75;;;6.45;;
28625;SDS011;18905;42.668;23.364;2023-07-22T12:21:14;22.48;;;6.97;;
28625;SDS011;18905;42.668;23.364;2023-07-22T12:23:41;29.63;;;6.40;;
28625;SDS011;18905;42.668;23.364;2023-07-22T12:26:07;24.65;;;6.25;;
28625;SDS011;18905;42.668;23.364;2023-07-22T12:28:33;32.42;;;6.60;;
28625;SDS011;18905;42.668;23.364;2023-07-22T12:30:59;26.85;;;7.30;;
28625;SDS011;18905;42.668;23.364;2023-07-22T12:33:25;26.20;;;6.47;;
28625;SDS011;18905;42.668;23.364;2023-07-22T12:35:52;27.30;;;6.65;;
28625;SDS011;18905;42.668;23.364;2023-07-22T12:38:18;29.80;;;6.72;;
28625;SDS011;18905;42.668;23.364;2023-07-22T12:40:44;36.33;;;7.15;;
28625;SDS011;18905;42.668;23.364;2023-07-22T12:43:09;24.50;;;6.82;;
28625;SDS011;18905;42.668;23.364;2023-07-22T12:45:34;32.75;;;7.05;;
28625;SDS011;18905;42.668;23.364;2023-07-22T12:48:00;21.15;;;6.72;;
28625;SDS011;18905;42.668;23.364;2023-07-22T12:50:25;33.42;;;6.70;;
28625;SDS011;18905;42.668;23.364;2023-07-22T12:52:50;32.97;;;6.20;;
28625;SDS011;18905;42.668;23.364;2023-07-22T12:55:16;29.35;;;7.00;;
28625;SDS011;18905;42.668;23.364;2023-07-22T12:57:41;26.27;;;6.63;;
28625;SDS011;18905;42.668;23.364;2023-07-22T13:00:07;25.13;;;6.10;;
28625;SDS011;18905;42.668;23.364;2023-07-22T13:02:35;26.55;;;6.53;;
28625;SDS011;18905;42.668;23.364;2023-07-22T13:05:01;22.77;;;5.90;;
28625;SDS011;18905;42.668;23.364;2023-07-22T13:07:27;28.30;;;6.40;;
28625;SDS011;18905;42.668;23.364;2023-07-22T13:09:52;24.27;;;6.20;;
28625;SDS011;18905;42.668;23.364;2023-07-22T13:12:22;33.03;;;6.55;;
28625;SDS011;18905;42.668;23.364;2023-07-22T13:14:48;25.00;;;6.77;;
28625;SDS011;18905;42.668;23.364;2023-07-22T13:17:13;32.00;;;7.28;;
28625;SDS011;18905;42.668;23.364;2023-07-22T13:19:38;29.23;;;7.30;;
28625;SDS011;18905;42.668;23.364;2023-07-22T13:22:04;27.10;;;6.30;;
28625;SDS011;18905;42.668;23.364;2023-07-22T13:24:29;31.70;;;6.65;;
28625;SDS011;18905;42.668;23.364;2023-07-22T13:26:55;39.97;;;6.88;;
28625;SDS011;18905;42.668;23.364;2023-07-22T13:29:20;26.55;;;6.47;;
28625;SDS011;18905;42.668;23.364;2023-07-22T13:31:45;29.75;;;6.82;;
28625;SDS011;18905;42.668;23.364;2023-07-22T13:34:11;25.75;;;6.10;;
28625;SDS011;18905;42.668;23.364;2023-07-22T13:36:36;27.02;;;6.53;;
28625;SDS011;18905;42.668;23.364;2023-07-22T13:39:02;34.03;;;6.90;;
28625;SDS011;18905;42.668;23.364;2023-07-22T13:41:27;30.88;;;6.63;;
28625;SDS011;18905;42.668;23.364;2023-07-22T13:43:53;33.70;;;7.55;;
28625;SDS011;18905;42.668;23.364;2023-07-22T13:46:19;34.28;;;7.05;;
28625;SDS011;18905;42.668;23.364;2023-07-22T13:48:44;24.88;;;6.35;;
28625;SDS011;18905;42.668;23.364;2023-07-22T13:51:10;25.50;;;7.07;;
28625;SDS011;18905;42.668;23.364;2023-07-22T13:53:35;24.15;;;6.45;;
28625;SDS011;18905;42.668;23.364;2023-07-22T13:56:00;25.17;;;6.37;;
28625;SDS011;18905;42.668;23.364;2023-07-22T13:58:26;23.10;;;6.68;;
28625;SDS011;18905;42.668;23.364;2023-07-22T14:00:51;27.48;;;6.35;;
28625;SDS011;18905;42.668;23.364;2023-07-22T14:03:17;30.42;;;6.75;;
28625;SDS011;18905;42.668;23.364;2023-07-22T14:05:42;29.85;;;6.72;;
28625;SDS011;18905;42.668;23.364;2023-07-22T14:08:08;29.67;;;7.03;;
28625;SDS011;18905;42.668;23.364;2023-07-22T14:10:33;26.58;;;7.18;;
28625;SDS011;18905;42.668;23.364;2023-07-22T14:12:58;32.47;;;7.10;;
28625;SDS011;18905;42.668;23.364;2023-07-22T14:15:24;25.77;;;6.43;;
28625;SDS011;18905;42.668;23.364;2023-07-22T14:17:49;34.45;;;6.63;;
28625;SDS011;18905;42.668;23.364;2023-07-22T14:20:14;26.83;;;5.97;;
28625;SDS011;18905;42.668;23.364;2023-07-22T14:22:41;39.10;;;6.22;;
28625;SDS011;18905;42.668;23.364;2023-07-22T14:25:07;33.78;;;6.40;;
28625;SDS011;18905;42.668;23.364;2023-07-22T14:27:33;27.45;;;6.25;;
28625;SDS011;18905;42.668;23.364;2023-07-22T14:29:59;23.88;;;6.50;;
28625;SDS011;18905;42.668;23.364;2023-07-22T14:32:25;29.25;;;7.15;;
28625;SDS011;18905;42.668;23.364;2023-07-22T14:34:50;35.77;;;6.87;;
28625;SDS011;18905;42.668;23.364;2023-07-22T14:37:16;21.77;;;5.55;;
28625;SDS011;18905;42.668;23.364;2023-07-22T14:39:42;38.00;;;6.07;;
28625;SDS011;18905;42.668;23.364;2023-07-22T14:42:07;30.43;;;6.10;;
28625;SDS011;18905;42.668;23.364;2023-07-22T14:44:32;27.05;;;5.90;;
28625;SDS011;18905;42.668;23.364;2023-07-22T14:46:58;29.15;;;6.43;;
28625;SDS011;18905;42.668;23.364;2023-07-22T14:49:23;33.50;;;6.60;;
28625;SDS011;18905;42.668;23.364;2023-07-22T14:51:48;29.90;;;6.33;;
28625;SDS011;18905;42.668;23.364;2023-07-22T14:54:14;37.67;;;6.13;;
28625;SDS011;18905;42.668;23.364;2023-07-22T14:56:39;28.80;;;6.70;;
28625;SDS011;18905;42.668;23.364;2023-07-22T14:59:05;30.73;;;6.47;;
28625;SDS011;18905;42.668;23.364;2023-07-22T15:01:38;38.03;;;7.28;;
28625;SDS011;18905;42.668;23.364;2023-07-22T15:04:04;30.83;;;6.45;;
28625;SDS011;18905;42.668;23.364;2023-07-22T15:06:30;26.73;;;6.05;;
28625;SDS011;18905;42.668;23.364;2023-07-22T15:08:56;35.38;;;7.15;;
28625;SDS011;18905;42.668;23.364;2023-07-22T15:11:22;28.75;;;6.80;;
28625;SDS011;18905;42.668;23.364;2023-07-22T15:13:47;28.88;;;5.50;;
28625;SDS011;18905;42.668;23.364;2023-07-22T15:16:13;25.25;;;6.25;;
28625;SDS011;18905;42.668;23.364;2023-07-22T15:18:39;33.17;;;7.45;;
28625;SDS011;18905;42.668;23.364;2023-07-22T15:21:04;28.42;;;6.82;;
28625;SDS011;18905;42.668;23.364;2023-07-22T15:23:30;36.67;;;6.85;;
28625;SDS011;18905;42.668;23.364;2023-07-22T15:25:55;24.47;;;5.67;;
28625;SDS011;18905;42.668;23.364;2023-07-22T15:28:20;28.75;;;5.75;;
28625;SDS011;18905;42.668;23.364;2023-07-22T15:30:46;25.85;;;6.28;;
28625;SDS011;18905;42.668;23.364;2023-07-22T15:33:11;28.63;;;6.38;;
28625;SDS011;18905;42.668;23.364;2023-07-22T15:35:37;29.73;;;7.00;;
28625;SDS011;18905;42.668;23.364;2023-07-22T15:38:02;29.33;;;7.03;;
28625;SDS011;18905;42.668;23.364;2023-07-22T15:40:28;25.38;;;5.28;;
28625;SDS011;18905;42.668;23.364;2023-07-22T15:42:53;34.35;;;6.75;;
28625;SDS011;18905;42.668;23.364;2023-07-22T15:45:20;34.45;;;6.50;;
28625;SDS011;18905;42.668;23.364;2023-07-22T15:47:46;35.03;;;7.20;;
28625;SDS011;18905;42.668;23.364;2023-07-22T15:50:11;24.08;;;6.18;;
28625;SDS011;18905;42.668;23.364;2023-07-22T15:52:37;30.42;;;6.40;;
28625;SDS011;18905;42.668;23.364;2023-07-22T15:55:02;21.80;;;5.68;;
28625;SDS011;18905;42.668;23.364;2023-07-22T15:57:28;29.08;;;6.28;;
28625;SDS011;18905;42.668;23.364;2023-07-22T15:59:53;26.27;;;6.32;;
28625;SDS011;18905;42.668;23.364;2023-07-22T16:02:18;23.40;;;6.10;;
28625;SDS011;18905;42.668;23.364;2023-07-22T16:04:44;36.33;;;6.40;;
28625;SDS011;18905;42.668;23.364;2023-07-22T16:07:09;31.57;;;6.40;;
28625;SDS011;18905;42.668;23.364;2023-07-22T16:09:34;27.23;;;6.93;;
28625;SDS011;18905;42.668;23.364;2023-07-22T16:12:01;31.13;;;6.38;;
28625;SDS011;18905;42.668;23.364;2023-07-22T16:14:28;26.58;;;5.72;;
28625;SDS011;18905;42.668;23.364;2023-07-22T16:16:54;26.77;;;5.95;;
28625;SDS011;18905;42.668;23.364;2023-07-22T16:19:19;31.70;;;5.97;;
28625;SDS011;18905;42.668;23.364;2023-07-22T16:21:45;32.90;;;6.95;;
28625;SDS011;18905;42.668;23.364;2023-07-22T16:24:10;35.77;;;6.37;;
28625;SDS011;18905;42.668;23.364;2023-07-22T16:26:36;27.13;;;6.17;;
28625;SDS011;18905;42.668;23.364;2023-07-22T16:29:01;28.03;;;5.97;;
28625;SDS011;18905;42.668;23.364;2023-07-22T16:31:27;36.88;;;6.95;;
28625;SDS011;18905;42.668;23.364;2023-07-22T16:33:52;27.98;;;6.28;;
28625;SDS011;18905;42.668;23.364;2023-07-22T16:36:18;22.45;;;6.95;;
28625;SDS011;18905;42.668;23.364;2023-07-22T16:38:43;29.23;;;6.60;;